Las horas y fechas están en horario UTC
Sumar 1 hora en el horario de invierno y 2 en el de verano

Informes METAR cercanos

 

LEZL - Sevilla (civ/Mil, Spain
Distance from station: NNE 24km
Actualización: 19/01/2018 00:00
Despejado
Despejado
 Viento del calm
Viento: Calma
Temperatura: 12°C
Rocío: 9°C
Humedad: 82%
Barómetro: 1019 hPa
Resumen: Despejado
Visibility: greater than 10 km
2018/01/18 23:00 LEZL 182300Z 00000KT CAVOK 12/09 Q1019 NOSIG
LEMO - Moron (sp-Usafb), Spain
Distance from station: E 38km
Actualización: 19/01/2018 00:00
Despejado
Despejado
 Viento del varies
Viento: varies 2 km/h
Temperatura: 10°C
Rocío: 6°C
Humedad: 76%
Barómetro: 1019 hPa
Resumen: Despejado
Visibility: greater than 10 km
2018/01/18 23:00 LEMO 182300Z VRB01KT CAVOK 10/06 Q1019 NOSIG
LEJR - Jerez (civ/Mil), Spain
Distance from station: S 53km
Actualización: 19/01/2018 00:00
Despejado
Despejado
 Viento del varies
Viento: varies 2 km/h
Temperatura: 9°C
Rocío: 8°C
Humedad: 94%
Barómetro: 1019 hPa
Resumen: Despejado
Visibility: greater than 10 km
2018/01/18 23:00 LEJR 182300Z AUTO VRB01KT CAVOK 09/08 Q1019
 
LERT - Rota Naval Stati, Spain
Distance from station: SSO 71km
Actualización: 19/01/2018 00:00
Despejado
Despejado
 Viento del varies
Viento: varies 2 km/h
Temperatura: 11°C
Rocío: 9°C
Humedad: 88%
Barómetro: 1019 hPa
Resumen: Despejado
Visibility: greater than 10 km
2018/01/18 23:00 LERT 182300Z VRB01KT CAVOK 11/09 Q1019 NOSIG
LEBA - Cordoba Airport, Spain
Distance from station: ENE 128km
Actualización: 19/01/2018 00:00
Despejado
Despejado
 Viento del calm
Viento: Calma
Temperatura: 6°C
Rocío: 6°C
Humedad: 100%
Barómetro: 1019 hPa
Clouds: Despejado
Visibility: 7 km
2018/01/18 23:00 LEBA 182300Z AUTO 00000KT 7000 NCD 06/06 Q1019
LXGB - Gibraltar (civ/M, Gibraltar
Distance from station: SSE 137km
Actualización: 18/01/2018 23:50
Muy nuboso
Muy nuboso
 Viento del ENE
Viento: ENE 30 km/h
Temperatura: 15°C
Rocío: 12°C
Humedad: 82%
Barómetro: 1019 hPa
Clouds: Muy nuboso
Visibility: 10 km
Cloud details: Muy nuboso 549 m
Muy nuboso 2743 m
2018/01/18 22:50 LXGB 182250Z AUTO 07016KT 9999 // BKN018/// BKN090/// 15/12 Q1019
 
LEMG - Malaga (civ/Mil), Spain
Distance from station: ESE 150km
Actualización: 19/01/2018 00:00
Despejado
Despejado
 Viento del ONO
Viento: ONO 4 km/h
Temperatura: 11°C
Rocío: 7°C
Humedad: 77%
Barómetro: 1019 hPa
Resumen: Despejado
Visibility: greater than 10 km
2018/01/18 23:00 LEMG 182300Z 29002KT CAVOK 11/07 Q1019 NOSIG
GMTT - Tangier/Boukhalf, Morocco
Distance from station: S 169km
Actualización: 19/01/2018 00:00
Muy nuboso
Muy nuboso
 Viento del ENE
Viento: ENE 13 km/h
Temperatura: 15°C
Rocío: 10°C
Humedad: 72%
Barómetro: 1018 hPa
Clouds: Muy nuboso
Visibility: 10 km
Cloud details: Parcialmente nuboso 488 m
Few Clouds 610 m
Muy nuboso 6096 m
2018/01/18 23:00 GMTT 182300Z 07007KT 9999 SCT016 FEW020TCU BKN200 15/10 Q1018 NOSIG
LPFR - Faro, Portugal
Distance from station: O 172km
Actualización: 19/01/2018 00:00
Despejado
Despejado
 Viento del NNO
Viento: NNO 9 km/h
Temperatura: 13°C
Rocío: 7°C
Humedad: 67%
Barómetro: 1019 hPa
Resumen: Despejado
Visibility: greater than 10 km
2018/01/18 23:00 LPFR 182300Z 33005KT CAVOK 13/07 Q1019
 
LPBJ - Beja (por/Ger-Af, Portugal
Distance from station: ONO 192km
Actualización: 19/01/2018 00:00
Despejado
Despejado
 Viento del NNE
Viento: NNE 9 km/h
Temperatura: 9°C
Wind Chill: 7°C
Rocío: 4°C
Humedad: 71%
Barómetro: 1021 hPa
Resumen: Despejado
Visibility: greater than 10 km
2018/01/18 23:00 LPBJ 182300Z 02005KT CAVOK 09/04 Q1021
LEBZ - Talavera Ab/Bada, Spain
Distance from station: NNO 194km
Actualización: 18/01/2018 21:00
NOT Current
Despejado
Despejado
 Viento del O
Viento: O 2 km/h
Temperatura: 10°C
Rocío: 5°C
Humedad: 71%
Barómetro: 1021 hPa
Resumen: Despejado
Visibility: greater than 10 km
2018/01/18 20:00 LEBZ 182000Z 28001KT CAVOK 10/05 Q1021
LEMD - Madrid/Barajas, Spain
Distance from station: NE 415km
Actualización: 19/01/2018 00:00
Despejado
Despejado
 Viento del NNO
Viento: NNO 7 km/h
Temperatura: 3°C
Wind Chill: 1°C
Rocío: 2°C
Humedad: 93%
Barómetro: 1021 hPa
Resumen: Despejado
Visibility: greater than 10 km
2018/01/18 23:00 LEMD 182300Z 33004KT 300V360 CAVOK 03/02 Q1021 NOSIG